Observations for Trim Market St
| Time | AQI | Temp °C | Hum % | Pres Pa | CO μg/m³ | H₂S μg/m³ | NO μg/m³ | NO₂ μg/m³ | O₃ μg/m³ | SO₂ μg/m³ | PM1 μg/m³ | PM2.5 μg/m³ | PM10 μg/m³ |
|---|---|---|---|---|---|---|---|---|---|---|---|---|---|
| Friday 14 August 2026 | |||||||||||||
| 15:14 | 2 | 26.9 | 42 | 64,017 | 0 | 9.75 | 0.82 | 13.43 | 79.83 | 0 | 0 | 2.28 | 2.51 |
| 15:13 | 2 | 27 | 42 | 64,141 | 0 | 9.24 | 0.82 | 18.83 | 60.75 | 0 | 0 | 2.29 | 2.52 |
| 15:10 | 2 | 27.3 | 41 | 64,501 | 0 | 6.88 | 0.78 | 14.29 | 64.76 | 0 | 0 | 2.31 | 2.54 |
| 15:06 | 2 | 27.9 | 40 | 64,890 | 0 | 6.72 | 0.73 | 13.29 | 62.24 | 0 | 0 | 2.34 | 2.57 |
| 15:04 | 2 | 28.1 | 40 | 65,117 | 0.04 | 7.91 | 0.73 | 13.28 | 60.02 | 0 | 0 | 2.36 | 2.59 |
| 15:02 | 2 | 28.4 | 40 | 65,299 | 0 | 5.76 | 0.77 | 16.41 | 60.05 | 0 | 0 | 2.37 | 2.61 |
| 14:56 | 2 | 29 | 39 | 65,592 | 0 | 3.93 | 0.83 | 13.64 | 66.22 | 0 | 0 | 2.4 | 2.64 |
| 14:54 | 2 | 29.1 | 39 | 65,627 | 0 | 1.92 | 0.83 | 14.08 | 56.59 | 0 | 0 | 2.94 | 3.24 |
| 14:52 | 2 | 29.2 | 38 | 65,672 | 0 | 3.52 | 0.85 | 19.67 | 57.43 | 0 | 0 | 2.42 | 2.67 |
| 14:51 | 2 | 29.2 | 38 | 65,692 | 0 | 0 | 0.84 | 14.33 | 56.39 | 0 | 0 | 2.43 | 2.67 |
| 14:50 | 2 | 29.2 | 38 | 65,721 | 0 | 0 | 0.81 | 21.57 | 54.15 | 0 | 0 | 2.43 | 2.67 |
| 14:49 | 2 | 29.3 | 38 | 65,721 | 0 | 0 | 0.84 | 32.56 | 41.78 | 0 | 0.71 | 2.96 | 3.25 |
| 14:48 | 2 | 29.3 | 38 | 65,690 | 0 | 0 | 0.81 | 12.91 | 57.38 | 0 | 0 | 2.42 | 2.67 |
| 14:45 | 2 | 29.4 | 38 | 65,740 | 0 | 0.08 | 0.9 | 15.76 | 56.75 | 0 | 0 | 2.97 | 3.27 |
| 14:44 | 2 | 29.4 | 38 | 65,748 | 0 | 0 | 0.9 | 19.21 | 55.15 | 0 | 0 | 2.44 | 2.68 |
| 14:43 | 2 | 29.4 | 38 | 65,758 | 0 | 1.07 | 0.91 | 30.48 | 43.8 | 0 | 0 | 2.45 | 2.69 |
| 14:42 | 2 | 29.5 | 38 | 65,766 | 0 | 0 | 0.86 | 32.65 | 45.05 | 0 | 0 | 2.45 | 2.7 |
| 14:41 | 2 | 29.5 | 38 | 65,805 | 0 | 0 | 0.93 | 12.72 | 58.03 | 0 | 0 | 2.45 | 2.7 |
| 14:40 | 2 | 29.5 | 38 | 65,799 | 0 | 0 | 0.94 | 13.48 | 57.99 | 0 | 0 | 2.46 | 2.7 |
| 14:39 | 2 | 29.5 | 38 | 65,786 | 0 | 0 | 0.94 | 21.38 | 36.98 | 0 | 0 | 2.99 | 3.29 |